Pagrindinis puslapis
METAR-TAF:

METAR-TAF

Oro uostai :

Eagle, Aliaska, Jungtinės Amerikos Valstijos

platuma: 64-46-35N, ilguma: 141-09-03W, Aukštis: 268 m

Dabartinis oras

Ataskaita buvo paskelbta 1 valandą ir 6 minutes, ne 19:53 UTC
Vėjas 5 kt nuo kintamojo kryptimis
Temperatūra -12°C
Drėgmė 85%
Slėgis 1038 hPa
Matomumas: 16.1 km
Giedras dangus

METAR: PAEG 221953Z AUTO VRB05KT 10SM CLR M12/M14 A3066 RMK AO2 SLP409 T11171144 TSNO

Laikas: 12:59 (20:59 UTC)


TAF: trūkstamas

Orai ataskaitas ir orų prognozės (METAR, TAF).

turimą stotys yra geltonos ir raudonos taškus žemėlapyje.

Perkelti pele per norėdami pamatyti stoties vardą.

Tada spustelėkite, norėdami matyti oro stebėjimo ir prognozės.

Norėdami pakeisti žemėlapį: spustelėkite ant žalios mygtukų su juodo kryžiaus žemyn,; žalią mygtuką su brūkšneliu, jei norite nutolinti; arba žalių rodyklių gretimoms žemėlapius.


METAR-TAF: